RA1483K UUOO-URWW
Flight info
| Callsign | RA1483K |
|---|---|
| Flight time | N/A |
| Altitude | 5000 |
| Route | OO302 OSGAD NIBIM AMDEL UVRAG |
| Aircraft | C172/M-SDE3FGHIRWY/C |
Departure
| Time | 2026-05-05 08:21 |
|---|---|
| Airport | Voronezh International Airport (UUOO) |
Arrival
| Time | N/A |
|---|---|
| Airport | Volgograd International Airport (URWW) |
| Time | Latitude | Longitude | Altitude | Speed | Heading |
|---|---|---|---|---|---|
| 2026-05-05 08:14 | 51.81286 | 39.22854 | 500 ft | 0 kts | 40° |
| 2026-05-05 08:16 | 51.81287 | 39.22855 | 500 ft | 2 kts | 44° |
| 2026-05-05 08:16 | 51.81271 | 39.22876 | 500 ft | 6 kts | 231° |
| 2026-05-05 08:16 | 51.81282 | 39.22819 | 500 ft | 5 kts | 285° |
| 2026-05-05 08:17 | 51.81306 | 39.22683 | 501 ft | 19 kts | 319° |
| 2026-05-05 08:17 | 51.81399 | 39.22620 | 502 ft | 14 kts | 311° |
| 2026-05-05 08:17 | 51.81467 | 39.22513 | 504 ft | 14 kts | 315° |
| 2026-05-05 08:17 | 51.81532 | 39.22392 | 505 ft | 15 kts | 311° |
| 2026-05-05 08:18 | 51.81599 | 39.22269 | 506 ft | 15 kts | 311° |
| 2026-05-05 08:18 | 51.81671 | 39.22133 | 507 ft | 17 kts | 310° |
| 2026-05-05 08:18 | 51.81747 | 39.21978 | 509 ft | 18 kts | 307° |
| 2026-05-05 08:18 | 51.81833 | 39.21822 | 510 ft | 19 kts | 316° |
| 2026-05-05 08:19 | 51.81939 | 39.21823 | 511 ft | 15 kts | 11° |
| 2026-05-05 08:19 | 51.81958 | 39.21828 | 511 ft | 0 kts | 8° |
| 2026-05-05 08:19 | 51.82002 | 39.21843 | 512 ft | 15 kts | 15° |
| 2026-05-05 08:19 | 51.82015 | 39.22010 | 513 ft | 28 kts | 128° |
| 2026-05-05 08:20 | 51.81773 | 39.22466 | 509 ft | 75 kts | 134° |
| 2026-05-05 08:20 | 51.81401 | 39.23213 | 620 ft | 89 kts | 134° |
| 2026-05-05 08:20 | 51.81003 | 39.24004 | 834 ft | 90 kts | 130° |
| 2026-05-05 08:20 | 51.80601 | 39.24836 | 1033 ft | 98 kts | 134° |
| 2026-05-05 08:21 | 51.80132 | 39.25649 | 1143 ft | 100 kts | 135° |
| 2026-05-05 08:21 | 51.79663 | 39.26483 | 1265 ft | 101 kts | 135° |
| 2026-05-05 08:21 | 51.79198 | 39.27332 | 1399 ft | 101 kts | 136° |
| 2026-05-05 08:21 | 51.78732 | 39.28210 | 1614 ft | 111 kts | 138° |
| 2026-05-05 08:22 | 51.78147 | 39.29224 | 1489 ft | 125 kts | 140° |
| 2026-05-05 08:22 | 51.77624 | 39.30209 | 1482 ft | 107 kts | 135° |
| 2026-05-05 08:22 | 51.77136 | 39.31125 | 1488 ft | 111 kts | 137° |
| 2026-05-05 08:22 | 51.76634 | 39.32060 | 1538 ft | 109 kts | 136° |
| 2026-05-05 08:23 | 51.76137 | 39.32991 | 1632 ft | 108 kts | 135° |
| 2026-05-05 08:23 | 51.75651 | 39.33899 | 1733 ft | 105 kts | 138° |
| 2026-05-05 08:23 | 51.75161 | 39.34805 | 1823 ft | 106 kts | 138° |
| 2026-05-05 08:23 | 51.74663 | 39.35739 | 1913 ft | 108 kts | 137° |
| 2026-05-05 08:24 | 51.74161 | 39.36668 | 2045 ft | 115 kts | 139° |
| 2026-05-05 08:24 | 51.73661 | 39.37594 | 2090 ft | 104 kts | 136° |
| 2026-05-05 08:24 | 51.73209 | 39.38452 | 2193 ft | 101 kts | 136° |
| 2026-05-05 08:24 | 51.72777 | 39.39258 | 2253 ft | 91 kts | 138° |
| 2026-05-05 08:25 | 51.72363 | 39.40026 | 2320 ft | 92 kts | 137° |
| 2026-05-05 08:25 | 51.71905 | 39.40779 | 2400 ft | 97 kts | 150° |
| 2026-05-05 08:25 | 51.71319 | 39.41423 | 2464 ft | 107 kts | 153° |
| 2026-05-05 08:25 | 51.70682 | 39.42140 | 2526 ft | 115 kts | 152° |
| 2026-05-05 08:26 | 51.70034 | 39.42882 | 2591 ft | 115 kts | 151° |
| 2026-05-05 08:26 | 51.69387 | 39.43614 | 2646 ft | 111 kts | 151° |
| 2026-05-05 08:26 | 51.68776 | 39.44314 | 2692 ft | 108 kts | 151° |
| 2026-05-05 08:26 | 51.68161 | 39.45008 | 2732 ft | 107 kts | 150° |
| 2026-05-05 08:27 | 51.67554 | 39.45698 | 2791 ft | 108 kts | 149° |
| 2026-05-05 08:27 | 51.66928 | 39.46411 | 2823 ft | 110 kts | 149° |
| 2026-05-05 08:27 | 51.66326 | 39.47089 | 2868 ft | 104 kts | 149° |
| 2026-05-05 08:27 | 51.65724 | 39.47773 | 2955 ft | 110 kts | 148° |
| 2026-05-05 08:28 | 51.65074 | 39.48504 | 3015 ft | 117 kts | 149° |
| 2026-05-05 08:28 | 51.64401 | 39.49262 | 3088 ft | 121 kts | 149° |
| 2026-05-05 08:28 | 51.63713 | 39.50044 | 3108 ft | 117 kts | 150° |
| 2026-05-05 08:28 | 51.63075 | 39.50769 | 3184 ft | 111 kts | 149° |
| 2026-05-05 08:29 | 51.62410 | 39.51520 | 3234 ft | 120 kts | 150° |
| 2026-05-05 08:29 | 51.61753 | 39.52268 | 3266 ft | 114 kts | 149° |
| 2026-05-05 08:29 | 51.61124 | 39.52982 | 3297 ft | 107 kts | 150° |
| 2026-05-05 08:30 | 51.59881 | 39.54384 | 3417 ft | 117 kts | 150° |
| 2026-05-05 08:30 | 51.59228 | 39.55129 | 3461 ft | 117 kts | 149° |
| 2026-05-05 08:30 | 51.58581 | 39.55844 | 3516 ft | 112 kts | 149° |
| 2026-05-05 08:30 | 51.57955 | 39.56565 | 3555 ft | 111 kts | 149° |
| 2026-05-05 08:31 | 51.57305 | 39.57298 | 3577 ft | 112 kts | 148° |
| 2026-05-05 08:31 | 51.56681 | 39.58006 | 3644 ft | 107 kts | 148° |
| 2026-05-05 08:31 | 51.56083 | 39.58682 | 3685 ft | 103 kts | 148° |
| 2026-05-05 08:31 | 51.55504 | 39.59339 | 3727 ft | 101 kts | 148° |
| 2026-05-05 08:32 | 51.54915 | 39.60003 | 3799 ft | 107 kts | 148° |
| 2026-05-05 08:32 | 51.54295 | 39.60696 | 3851 ft | 107 kts | 148° |
| 2026-05-05 08:32 | 51.53696 | 39.61373 | 3907 ft | 105 kts | 149° |
| 2026-05-05 08:32 | 51.53096 | 39.62051 | 3938 ft | 103 kts | 149° |
| 2026-05-05 08:33 | 51.52525 | 39.62695 | 3983 ft | 98 kts | 147° |
| 2026-05-05 08:33 | 51.51963 | 39.63327 | 4035 ft | 101 kts | 149° |
| 2026-05-05 08:33 | 51.51381 | 39.63982 | 4084 ft | 100 kts | 148° |
| 2026-05-05 08:33 | 51.50800 | 39.64630 | 4148 ft | 105 kts | 149° |
| 2026-05-05 08:34 | 51.50196 | 39.65318 | 4203 ft | 107 kts | 148° |
| 2026-05-05 08:34 | 51.49601 | 39.65988 | 4253 ft | 102 kts | 148° |
| 2026-05-05 08:34 | 51.49018 | 39.66639 | 4303 ft | 103 kts | 148° |
| 2026-05-05 08:34 | 51.48441 | 39.67289 | 4350 ft | 100 kts | 148° |
| 2026-05-05 08:35 | 51.47872 | 39.67931 | 4398 ft | 100 kts | 147° |
| 2026-05-05 08:35 | 51.47306 | 39.68566 | 4447 ft | 100 kts | 148° |
| 2026-05-05 08:35 | 51.46729 | 39.69214 | 4516 ft | 105 kts | 148° |
| 2026-05-05 08:35 | 51.46118 | 39.69894 | 4570 ft | 108 kts | 148° |
| 2026-05-05 08:36 | 51.45503 | 39.70577 | 4615 ft | 105 kts | 147° |
| 2026-05-05 08:36 | 51.44899 | 39.71259 | 4680 ft | 109 kts | 147° |
| 2026-05-05 08:36 | 51.44276 | 39.71960 | 4720 ft | 109 kts | 148° |
| 2026-05-05 08:36 | 51.43674 | 39.72636 | 4767 ft | 103 kts | 147° |
| 2026-05-05 08:37 | 51.43097 | 39.73286 | 4826 ft | 100 kts | 147° |
| 2026-05-05 08:37 | 51.42513 | 39.73945 | 4877 ft | 105 kts | 147° |
| 2026-05-05 08:37 | 51.41926 | 39.74595 | 4914 ft | 102 kts | 147° |
| 2026-05-05 08:37 | 51.41351 | 39.75236 | 4963 ft | 100 kts | 145° |
| 2026-05-05 08:38 | 51.40790 | 39.75870 | 4996 ft | 99 kts | 147° |
| 2026-05-05 08:38 | 51.40214 | 39.76516 | 5007 ft | 104 kts | 147° |
| 2026-05-05 08:38 | 51.39613 | 39.77179 | 5014 ft | 105 kts | 147° |
| 2026-05-05 08:38 | 51.38999 | 39.77865 | 5013 ft | 111 kts | 148° |
| 2026-05-05 08:39 | 51.38364 | 39.78574 | 5003 ft | 112 kts | 148° |
| 2026-05-05 08:39 | 51.37739 | 39.79273 | 5002 ft | 108 kts | 147° |
| 2026-05-05 08:39 | 51.37127 | 39.79956 | 5002 ft | 107 kts | 147° |
| 2026-05-05 08:39 | 51.36524 | 39.80631 | 5007 ft | 105 kts | 147° |
| 2026-05-05 08:40 | 51.35913 | 39.81312 | 4999 ft | 107 kts | 148° |
| 2026-05-05 08:40 | 51.35307 | 39.81989 | 5000 ft | 105 kts | 148° |
| 2026-05-05 08:40 | 51.34699 | 39.82667 | 5000 ft | 107 kts | 147° |
| 2026-05-05 08:40 | 51.34098 | 39.83340 | 4997 ft | 105 kts | 147° |
| 2026-05-05 08:41 | 51.33495 | 39.84011 | 4998 ft | 106 kts | 147° |
| 2026-05-05 08:41 | 51.32890 | 39.84680 | 5003 ft | 105 kts | 147° |
| 2026-05-05 08:41 | 51.32286 | 39.85359 | 5004 ft | 106 kts | 147° |
| 2026-05-05 08:41 | 51.31673 | 39.86040 | 5008 ft | 107 kts | 147° |
| 2026-05-05 08:42 | 51.31069 | 39.86714 | 5007 ft | 105 kts | 147° |
| 2026-05-05 08:42 | 51.30454 | 39.87396 | 5017 ft | 110 kts | 147° |
| 2026-05-05 08:42 | 51.29833 | 39.88086 | 5012 ft | 109 kts | 147° |
| 2026-05-05 08:42 | 51.29217 | 39.88771 | 5010 ft | 106 kts | 147° |
| 2026-05-05 08:43 | 51.28608 | 39.89449 | 5006 ft | 109 kts | 147° |
| 2026-05-05 08:43 | 51.27996 | 39.90130 | 5011 ft | 107 kts | 146° |
| 2026-05-05 08:43 | 51.27380 | 39.90815 | 5014 ft | 109 kts | 147° |
| 2026-05-05 08:43 | 51.26757 | 39.91504 | 5008 ft | 108 kts | 147° |
| 2026-05-05 08:44 | 51.26148 | 39.92182 | 5012 ft | 107 kts | 147° |
| 2026-05-05 08:44 | 51.25536 | 39.92860 | 5017 ft | 108 kts | 147° |
| 2026-05-05 08:44 | 51.24915 | 39.93549 | 5010 ft | 108 kts | 147° |
| 2026-05-05 08:44 | 51.24298 | 39.94235 | 5018 ft | 109 kts | 146° |
| 2026-05-05 08:45 | 51.23674 | 39.94925 | 5011 ft | 108 kts | 147° |
| 2026-05-05 08:45 | 51.23065 | 39.95601 | 5011 ft | 105 kts | 147° |
| 2026-05-05 08:45 | 51.22671 | 39.96040 | 5003 ft | 104 kts | 147° |
| 2026-05-05 08:45 | 51.22072 | 39.96703 | 5010 ft | 106 kts | 147° |
| 2026-05-05 08:46 | 51.21465 | 39.97376 | 5014 ft | 108 kts | 147° |
| 2026-05-05 08:46 | 51.20843 | 39.98061 | 5017 ft | 109 kts | 146° |
| 2026-05-05 08:46 | 51.20223 | 39.98747 | 5014 ft | 107 kts | 146° |
| 2026-05-05 08:46 | 51.19617 | 39.99419 | 5012 ft | 105 kts | 146° |
| 2026-05-05 08:47 | 51.18818 | 40.00307 | 5014 ft | 106 kts | 146° |
| 2026-05-05 08:47 | 51.18205 | 40.00980 | 5017 ft | 108 kts | 147° |
| 2026-05-05 08:47 | 51.17596 | 40.01695 | 5014 ft | 109 kts | 140° |
| 2026-05-05 08:47 | 51.17213 | 40.02225 | 5017 ft | 108 kts | 141° |
| 2026-05-05 08:48 | 51.16641 | 40.02985 | 5011 ft | 106 kts | 141° |
| 2026-05-05 08:48 | 51.16076 | 40.03741 | 5016 ft | 106 kts | 141° |
| 2026-05-05 08:48 | 51.15505 | 40.04505 | 5011 ft | 107 kts | 141° |
| 2026-05-05 08:48 | 51.14940 | 40.05263 | 5008 ft | 105 kts | 141° |
| 2026-05-05 08:49 | 51.14379 | 40.06013 | 5008 ft | 106 kts | 141° |
| 2026-05-05 08:49 | 51.13820 | 40.06763 | 5009 ft | 106 kts | 141° |
| 2026-05-05 08:49 | 51.13257 | 40.07518 | 5010 ft | 105 kts | 141° |
| 2026-05-05 08:49 | 51.12700 | 40.08264 | 5011 ft | 104 kts | 141° |
| 2026-05-05 08:50 | 51.12144 | 40.09011 | 5010 ft | 106 kts | 141° |
| 2026-05-05 08:50 | 51.11570 | 40.09774 | 5014 ft | 108 kts | 141° |
| 2026-05-05 08:50 | 51.11000 | 40.10533 | 5014 ft | 107 kts | 141° |
| 2026-05-05 08:50 | 51.10437 | 40.11292 | 5013 ft | 105 kts | 141° |
| 2026-05-05 08:51 | 51.09878 | 40.12040 | 5012 ft | 105 kts | 141° |
| 2026-05-05 08:51 | 51.09316 | 40.12789 | 5010 ft | 105 kts | 141° |
| 2026-05-05 08:51 | 51.08758 | 40.13536 | 5012 ft | 105 kts | 141° |
| 2026-05-05 08:51 | 51.08199 | 40.14283 | 5011 ft | 105 kts | 141° |
| 2026-05-05 08:52 | 51.07639 | 40.15030 | 5021 ft | 106 kts | 141° |
| 2026-05-05 08:52 | 51.07074 | 40.15784 | 5018 ft | 105 kts | 141° |
| 2026-05-05 08:52 | 51.06514 | 40.16532 | 5016 ft | 105 kts | 141° |
| 2026-05-05 08:52 | 51.05957 | 40.17275 | 5015 ft | 104 kts | 141° |
| 2026-05-05 08:53 | 51.05402 | 40.18015 | 5018 ft | 104 kts | 141° |
| 2026-05-05 08:53 | 51.04849 | 40.18753 | 5018 ft | 104 kts | 141° |
| 2026-05-05 08:53 | 51.04295 | 40.19492 | 5018 ft | 104 kts | 141° |
| 2026-05-05 08:53 | 51.03740 | 40.20231 | 5018 ft | 104 kts | 141° |
| 2026-05-05 08:54 | 51.03186 | 40.20968 | 5013 ft | 104 kts | 141° |
| 2026-05-05 08:54 | 51.02631 | 40.21707 | 5019 ft | 105 kts | 140° |
| 2026-05-05 08:54 | 51.02073 | 40.22450 | 5015 ft | 104 kts | 141° |
| 2026-05-05 08:54 | 51.01518 | 40.23189 | 5018 ft | 104 kts | 141° |
| 2026-05-05 08:55 | 51.00960 | 40.23930 | 5018 ft | 104 kts | 141° |
| 2026-05-05 08:55 | 51.00402 | 40.24673 | 5020 ft | 105 kts | 140° |
| 2026-05-05 08:55 | 50.99840 | 40.25421 | 5021 ft | 106 kts | 141° |
| 2026-05-05 08:55 | 50.99271 | 40.26177 | 5024 ft | 107 kts | 140° |
| 2026-05-05 08:56 | 50.98697 | 40.26938 | 5029 ft | 108 kts | 140° |
| 2026-05-05 08:56 | 50.98117 | 40.27708 | 5028 ft | 109 kts | 140° |
| 2026-05-05 08:56 | 50.97538 | 40.28478 | 5025 ft | 109 kts | 140° |
| 2026-05-05 08:56 | 50.96956 | 40.29249 | 5027 ft | 109 kts | 140° |
| 2026-05-05 08:57 | 50.96374 | 40.30019 | 5024 ft | 109 kts | 140° |
| 2026-05-05 08:57 | 50.95806 | 40.30774 | 5030 ft | 108 kts | 140° |
| 2026-05-05 08:57 | 50.95213 | 40.31560 | 5024 ft | 111 kts | 140° |
| 2026-05-05 08:57 | 50.94635 | 40.32326 | 5022 ft | 109 kts | 140° |
| 2026-05-05 08:58 | 50.94057 | 40.33092 | 5021 ft | 108 kts | 140° |
| 2026-05-05 08:58 | 50.93482 | 40.33853 | 5020 ft | 108 kts | 140° |
| 2026-05-05 08:58 | 50.92908 | 40.34613 | 5028 ft | 108 kts | 140° |
| 2026-05-05 08:58 | 50.92329 | 40.35381 | 5024 ft | 109 kts | 140° |
| 2026-05-05 08:59 | 50.91750 | 40.36146 | 5024 ft | 108 kts | 140° |
| 2026-05-05 08:59 | 50.91170 | 40.36912 | 5024 ft | 109 kts | 140° |
| 2026-05-05 08:59 | 50.90589 | 40.37681 | 5030 ft | 109 kts | 140° |
| 2026-05-05 08:59 | 50.90009 | 40.38448 | 5026 ft | 108 kts | 140° |
| 2026-05-05 09:00 | 50.89432 | 40.39210 | 5025 ft | 108 kts | 140° |
| 2026-05-05 09:00 | 50.88851 | 40.39978 | 5029 ft | 110 kts | 140° |
| 2026-05-05 09:00 | 50.88272 | 40.40741 | 5029 ft | 108 kts | 140° |
| 2026-05-05 09:00 | 50.87686 | 40.41515 | 5033 ft | 110 kts | 140° |
| 2026-05-05 09:01 | 50.87095 | 40.42293 | 5028 ft | 111 kts | 140° |
| 2026-05-05 09:01 | 50.86500 | 40.43075 | 5032 ft | 111 kts | 140° |
| 2026-05-05 09:01 | 50.85909 | 40.43858 | 5026 ft | 111 kts | 140° |
| 2026-05-05 09:01 | 50.85309 | 40.44647 | 5032 ft | 113 kts | 140° |
| 2026-05-05 09:02 | 50.84707 | 40.45436 | 5041 ft | 112 kts | 139° |
| 2026-05-05 09:02 | 50.84108 | 40.46226 | 5018 ft | 111 kts | 139° |
| 2026-05-05 09:02 | 50.83524 | 40.47000 | 5018 ft | 109 kts | 139° |
| 2026-05-05 09:02 | 50.82946 | 40.47761 | 5019 ft | 107 kts | 139° |
| 2026-05-05 09:03 | 50.82373 | 40.48516 | 5018 ft | 107 kts | 140° |
| 2026-05-05 09:03 | 50.81800 | 40.49270 | 5027 ft | 108 kts | 139° |
| 2026-05-05 09:03 | 50.81232 | 40.50017 | 5029 ft | 108 kts | 139° |
| 2026-05-05 09:03 | 50.80658 | 40.50771 | 5029 ft | 107 kts | 139° |
| 2026-05-05 09:04 | 50.80083 | 40.51526 | 5027 ft | 107 kts | 139° |
| 2026-05-05 09:04 | 50.79508 | 40.52284 | 5030 ft | 110 kts | 140° |
| 2026-05-05 09:04 | 50.78910 | 40.53068 | 5035 ft | 113 kts | 139° |
| 2026-05-05 09:04 | 50.78301 | 40.53865 | 5031 ft | 114 kts | 140° |
| 2026-05-05 09:05 | 50.77698 | 40.54653 | 5032 ft | 111 kts | 139° |
| 2026-05-05 09:05 | 50.77102 | 40.55432 | 5031 ft | 111 kts | 139° |
| 2026-05-05 09:05 | 50.76508 | 40.56215 | 5028 ft | 111 kts | 139° |
| 2026-05-05 09:05 | 50.75922 | 40.56986 | 5025 ft | 108 kts | 140° |
| 2026-05-05 09:06 | 50.75344 | 40.57744 | 5022 ft | 108 kts | 140° |
| 2026-05-05 09:06 | 50.74766 | 40.58510 | 5023 ft | 108 kts | 139° |
| 2026-05-05 09:06 | 50.74173 | 40.59270 | 5020 ft | 110 kts | 139° |
| 2026-05-05 09:06 | 50.73589 | 40.60039 | 5025 ft | 109 kts | 139° |
| 2026-05-05 09:07 | 50.73001 | 40.60808 | 5030 ft | 111 kts | 139° |
| 2026-05-05 09:07 | 50.72392 | 40.61601 | 5026 ft | 113 kts | 139° |
| 2026-05-05 09:07 | 50.71780 | 40.62407 | 5033 ft | 116 kts | 139° |
| 2026-05-05 09:07 | 50.71167 | 40.63204 | 5025 ft | 113 kts | 138° |
| 2026-05-05 09:08 | 50.70567 | 40.63991 | 5021 ft | 109 kts | 139° |
| 2026-05-05 09:08 | 50.69987 | 40.64749 | 5027 ft | 108 kts | 139° |
| 2026-05-05 09:08 | 50.69408 | 40.65510 | 5018 ft | 109 kts | 138° |
| 2026-05-05 09:08 | 50.68835 | 40.66256 | 5020 ft | 108 kts | 138° |
| 2026-05-05 09:09 | 50.68254 | 40.67014 | 5028 ft | 110 kts | 139° |
| 2026-05-05 09:09 | 50.67661 | 40.67784 | 5030 ft | 109 kts | 139° |
| 2026-05-05 09:09 | 50.67067 | 40.68562 | 5031 ft | 114 kts | 139° |
| 2026-05-05 09:09 | 50.66469 | 40.69340 | 5021 ft | 109 kts | 139° |
| 2026-05-05 09:10 | 50.65879 | 40.70109 | 5033 ft | 112 kts | 139° |
| 2026-05-05 09:10 | 50.65279 | 40.70889 | 5029 ft | 110 kts | 139° |
| 2026-05-05 09:10 | 50.64695 | 40.71654 | 5028 ft | 108 kts | 138° |
| 2026-05-05 09:10 | 50.64120 | 40.72404 | 5023 ft | 107 kts | 139° |
| 2026-05-05 09:11 | 50.63548 | 40.73149 | 5026 ft | 107 kts | 139° |
| 2026-05-05 09:11 | 50.62972 | 40.73895 | 5028 ft | 108 kts | 139° |
| 2026-05-05 09:11 | 50.62368 | 40.74680 | 5033 ft | 115 kts | 138° |
| 2026-05-05 09:11 | 50.61752 | 40.75485 | 5037 ft | 113 kts | 138° |
| 2026-05-05 09:12 | 50.61156 | 40.76257 | 5025 ft | 109 kts | 139° |
| 2026-05-05 09:12 | 50.60578 | 40.77002 | 5023 ft | 106 kts | 141° |
| 2026-05-05 09:12 | 50.59951 | 40.77618 | 5047 ft | 110 kts | 145° |
| 2026-05-05 09:12 | 50.59278 | 40.78289 | 5021 ft | 113 kts | 145° |
| 2026-05-05 09:13 | 50.58630 | 40.78929 | 5019 ft | 107 kts | 146° |
| 2026-05-05 09:13 | 50.58008 | 40.79544 | 5032 ft | 105 kts | 146° |
| 2026-05-05 09:13 | 50.57360 | 40.80182 | 5038 ft | 114 kts | 146° |
| 2026-05-05 09:13 | 50.56692 | 40.80834 | 5035 ft | 113 kts | 146° |
| 2026-05-05 09:14 | 50.56040 | 40.81484 | 5024 ft | 108 kts | 145° |
| 2026-05-05 09:14 | 50.55401 | 40.82107 | 5023 ft | 109 kts | 146° |
| 2026-05-05 09:14 | 50.54760 | 40.82734 | 5017 ft | 108 kts | 146° |
| 2026-05-05 09:14 | 50.54131 | 40.83354 | 5039 ft | 109 kts | 146° |
| 2026-05-05 09:15 | 50.53484 | 40.83991 | 5024 ft | 109 kts | 146° |
| 2026-05-05 09:15 | 50.52836 | 40.84634 | 5022 ft | 111 kts | 144° |
| 2026-05-05 09:15 | 50.52187 | 40.85265 | 5032 ft | 112 kts | 146° |
| 2026-05-05 09:15 | 50.51511 | 40.85920 | 5021 ft | 113 kts | 146° |
| 2026-05-05 09:16 | 50.50862 | 40.86560 | 5022 ft | 108 kts | 146° |
| 2026-05-05 09:16 | 50.50227 | 40.87185 | 5032 ft | 110 kts | 146° |
| 2026-05-05 09:16 | 50.49575 | 40.87821 | 5018 ft | 108 kts | 145° |
| 2026-05-05 09:16 | 50.48949 | 40.88439 | 5027 ft | 106 kts | 145° |
| 2026-05-05 09:17 | 50.48298 | 40.89074 | 5017 ft | 109 kts | 145° |
| 2026-05-05 09:17 | 50.47668 | 40.89694 | 5020 ft | 105 kts | 145° |
| 2026-05-05 09:17 | 50.47054 | 40.90295 | 5016 ft | 103 kts | 145° |
| 2026-05-05 09:17 | 50.46457 | 40.90892 | 5022 ft | 103 kts | 144° |
| 2026-05-05 09:18 | 50.45846 | 40.91479 | 5023 ft | 103 kts | 147° |
| 2026-05-05 09:18 | 50.45240 | 40.92070 | 5019 ft | 102 kts | 145° |
| 2026-05-05 09:18 | 50.44631 | 40.92662 | 5024 ft | 104 kts | 146° |
| 2026-05-05 09:18 | 50.44017 | 40.93269 | 5031 ft | 104 kts | 145° |
| 2026-05-05 09:19 | 50.43399 | 40.93868 | 5033 ft | 104 kts | 145° |
| 2026-05-05 09:19 | 50.42781 | 40.94472 | 5031 ft | 105 kts | 145° |
| 2026-05-05 09:19 | 50.42165 | 40.95075 | 5033 ft | 104 kts | 146° |
| 2026-05-05 09:19 | 50.41550 | 40.95674 | 5032 ft | 104 kts | 146° |
| 2026-05-05 09:20 | 50.40934 | 40.96278 | 5034 ft | 103 kts | 146° |
| 2026-05-05 09:20 | 50.40291 | 40.96895 | 5036 ft | 116 kts | 145° |
| 2026-05-05 09:20 | 50.39585 | 40.97582 | 5037 ft | 121 kts | 146° |
| 2026-05-05 09:20 | 50.38887 | 40.98256 | 5034 ft | 118 kts | 146° |
| 2026-05-05 09:21 | 50.38214 | 40.98917 | 5019 ft | 111 kts | 146° |
| 2026-05-05 09:21 | 50.37570 | 40.99548 | 5019 ft | 106 kts | 145° |
| 2026-05-05 09:21 | 50.36953 | 41.00152 | 5018 ft | 104 kts | 145° |
| 2026-05-05 09:21 | 50.36332 | 41.00759 | 5029 ft | 109 kts | 146° |
| 2026-05-05 09:22 | 50.35675 | 41.01392 | 5026 ft | 112 kts | 147° |
| 2026-05-05 09:22 | 50.35020 | 41.02025 | 5032 ft | 112 kts | 146° |
| 2026-05-05 09:22 | 50.34363 | 41.02667 | 5039 ft | 113 kts | 146° |
| 2026-05-05 09:22 | 50.33694 | 41.03312 | 5034 ft | 117 kts | 146° |
| 2026-05-05 09:23 | 50.33022 | 41.03971 | 5018 ft | 111 kts | 146° |
| 2026-05-05 09:23 | 50.32381 | 41.04596 | 5022 ft | 108 kts | 146° |
| 2026-05-05 09:23 | 50.31741 | 41.05221 | 5021 ft | 108 kts | 146° |
| 2026-05-05 09:23 | 50.31115 | 41.05829 | 5021 ft | 104 kts | 146° |
| 2026-05-05 09:24 | 50.30495 | 41.06433 | 5036 ft | 107 kts | 146° |
| 2026-05-05 09:24 | 50.29867 | 41.07040 | 5028 ft | 104 kts | 146° |
| 2026-05-05 09:24 | 50.29252 | 41.07637 | 5026 ft | 104 kts | 146° |
| 2026-05-05 09:24 | 50.28642 | 41.08229 | 5028 ft | 104 kts | 146° |
| 2026-05-05 09:25 | 50.28022 | 41.08831 | 5027 ft | 104 kts | 146° |
| 2026-05-05 09:25 | 50.27387 | 41.09443 | 5039 ft | 110 kts | 146° |
| 2026-05-05 09:25 | 50.26729 | 41.10069 | 5025 ft | 109 kts | 147° |
| 2026-05-05 09:25 | 50.26085 | 41.10699 | 5042 ft | 112 kts | 146° |
| 2026-05-05 09:26 | 50.25416 | 41.11349 | 5033 ft | 112 kts | 146° |
| 2026-05-05 09:26 | 50.24752 | 41.11991 | 5033 ft | 116 kts | 145° |
| 2026-05-05 09:26 | 50.24054 | 41.12659 | 5021 ft | 113 kts | 147° |
| 2026-05-05 09:26 | 50.23385 | 41.13308 | 5034 ft | 115 kts | 147° |
| 2026-05-05 09:27 | 50.22724 | 41.13953 | 5029 ft | 111 kts | 146° |
| 2026-05-05 09:27 | 50.22080 | 41.14577 | 5021 ft | 106 kts | 146° |
| 2026-05-05 09:27 | 50.21451 | 41.15187 | 5022 ft | 105 kts | 146° |
| 2026-05-05 09:27 | 50.20828 | 41.15782 | 5024 ft | 105 kts | 146° |
| 2026-05-05 09:28 | 50.20202 | 41.16389 | 5024 ft | 108 kts | 146° |
| 2026-05-05 09:28 | 50.19561 | 41.17010 | 5026 ft | 107 kts | 146° |
| 2026-05-05 09:28 | 50.18931 | 41.17621 | 5050 ft | 108 kts | 146° |
| 2026-05-05 09:28 | 50.18261 | 41.18265 | 5035 ft | 118 kts | 147° |
| 2026-05-05 09:29 | 50.17559 | 41.18934 | 5042 ft | 119 kts | 147° |
| 2026-05-05 09:29 | 50.16853 | 41.19612 | 5027 ft | 118 kts | 147° |
| 2026-05-05 09:29 | 50.16180 | 41.20260 | 5020 ft | 110 kts | 146° |
| 2026-05-05 09:29 | 50.15538 | 41.20885 | 5019 ft | 107 kts | 146° |
| 2026-05-05 09:30 | 50.14919 | 41.21485 | 5020 ft | 105 kts | 146° |
| 2026-05-05 09:30 | 50.14300 | 41.22082 | 5022 ft | 105 kts | 146° |
| 2026-05-05 09:30 | 50.13669 | 41.22688 | 5036 ft | 111 kts | 147° |
| 2026-05-05 09:30 | 50.13001 | 41.23326 | 5024 ft | 111 kts | 147° |
| 2026-05-05 09:31 | 50.12338 | 41.23966 | 5033 ft | 111 kts | 147° |
| 2026-05-05 09:31 | 50.11672 | 41.24606 | 5039 ft | 116 kts | 147° |
| 2026-05-05 09:31 | 50.10988 | 41.25261 | 5022 ft | 112 kts | 147° |
| 2026-05-05 09:31 | 50.10338 | 41.25887 | 5026 ft | 107 kts | 146° |
| 2026-05-05 09:32 | 50.09681 | 41.26519 | 5036 ft | 115 kts | 147° |
| 2026-05-05 09:32 | 50.09020 | 41.27154 | 5032 ft | 110 kts | 146° |
| 2026-05-05 09:32 | 50.08368 | 41.27777 | 5028 ft | 109 kts | 147° |
| 2026-05-05 09:32 | 50.07707 | 41.28411 | 5021 ft | 111 kts | 147° |
| 2026-05-05 09:33 | 50.07062 | 41.29035 | 5020 ft | 107 kts | 146° |
| 2026-05-05 09:33 | 50.06643 | 41.29438 | 5021 ft | 106 kts | 147° |
| 2026-05-05 09:33 | 50.05809 | 41.30243 | 5037 ft | 111 kts | 147° |
| 2026-05-05 09:33 | 50.05356 | 41.30674 | 5020 ft | 116 kts | 147° |